Time;durP1;ratioP1;P1;durP2;ratioP2;P2;SDS_P1;SDS_P2;PMS_P1;PMS_P2;Temp;Humidity;BMP_temperature;BMP_pressure;BME280_temperature;BME280_humidity;BME280_pressure;Samples;Min_cycle;Max_cycle;Signal;HPM_P1;HPM_P2
2021/05/16 00:01:10;;;;;;;7.00;5.78;;;10.40;99.90;;;;;;5073126;28;20052;-79
2021/05/16 00:03:37;;;;;;;5.53;4.95;;;10.40;99.90;;;;;;5071659;28;20379;-79
2021/05/16 00:06:03;;;;;;;7.15;5.20;;;10.40;99.90;;;;;;5073445;28;20028;-78
2021/05/16 00:08:30;;;;;;;8.40;5.22;;;10.40;99.90;;;;;;5060984;28;20082;-78
2021/05/16 00:10:56;;;;;;;6.78;5.65;;;10.40;99.90;;;;;;5051699;28;20017;-79
2021/05/16 00:13:22;;;;;;;7.93;5.07;;;10.40;99.90;;;;;;5051447;28;20482;-79
2021/05/16 00:15:48;;;;;;;6.28;4.80;;;10.30;99.90;;;;;;5051516;28;20028;-79
2021/05/16 00:18:14;;;;;;;5.63;4.35;;;10.40;99.90;;;;;;5051518;28;20025;-79
2021/05/16 00:20:40;;;;;;;7.25;5.30;;;10.30;99.90;;;;;;5051561;28;20017;-79
2021/05/16 00:23:06;;;;;;;6.57;5.28;;;10.30;99.90;;;;;;5052429;28;20167;-79
2021/05/16 00:25:33;;;;;;;8.30;5.43;;;10.30;99.90;;;;;;5051799;28;20110;-80
2021/05/16 00:27:59;;;;;;;6.85;5.60;;;10.30;99.90;;;;;;5051456;28;20020;-80
2021/05/16 00:30:26;;;;;;;5.65;4.68;;;10.20;99.90;;;;;;5051475;28;20371;-80
2021/05/16 00:32:53;;;;;;;5.35;4.85;;;10.20;99.90;;;;;;5052814;28;20052;-79
2021/05/16 00:35:22;;;;;;;6.78;5.32;;;10.20;99.90;;;;;;5051418;28;20108;-80
2021/05/16 00:37:49;;;;;;;5.88;5.28;;;10.20;99.90;;;;;;5052603;28;20103;-78
2021/05/16 00:40:15;;;;;;;6.75;4.90;;;10.20;99.90;;;;;;5051307;28;20033;-79
2021/05/16 00:42:42;;;;;;;5.65;4.85;;;10.20;99.90;;;;;;5052547;28;20024;-79
2021/05/16 00:45:09;;;;;;;6.75;4.68;;;10.00;99.90;;;;;;5060352;28;20025;-79
2021/05/16 00:47:36;;;;;;;5.20;4.60;;;9.80;99.90;;;;;;5075227;28;20035;-79
2021/05/16 00:50:09;;;;;;;8.43;5.85;;;9.80;99.90;;;;;;5075490;28;20032;-80
2021/05/16 00:52:38;;;;;;;6.22;4.70;;;9.70;99.90;;;;;;5074565;28;20029;-80
2021/05/16 00:55:06;;;;;;;6.80;4.93;;;9.70;99.90;;;;;;5056607;28;20072;-80
2021/05/16 00:57:32;;;;;;;5.70;4.63;;;9.70;99.90;;;;;;5055111;28;20064;-79
2021/05/16 00:59:57;;;;;;;5.10;4.60;;;9.60;99.90;;;;;;5056583;28;20045;-79
2021/05/16 01:02:24;;;;;;;5.43;4.75;;;9.60;99.90;;;;;;5055148;28;20025;-79
2021/05/16 01:04:51;;;;;;;6.22;4.63;;;9.60;99.90;;;;;;5055019;28;20040;-79
2021/05/16 01:07:17;;;;;;;7.18;4.68;;;9.60;99.90;;;;;;5055067;28;20017;-79
2021/05/16 01:09:43;;;;;;;7.70;5.35;;;9.70;99.90;;;;;;5064630;28;20074;-78
2021/05/16 01:12:10;;;;;;;6.05;5.30;;;9.70;99.90;;;;;;5076171;28;20104;-78
2021/05/16 01:14:39;;;;;;;7.13;4.90;;;9.80;99.90;;;;;;5076208;28;20036;-78
2021/05/16 01:17:05;;;;;;;6.05;5.38;;;9.80;99.90;;;;;;5076169;28;20028;-78
2021/05/16 01:19:32;;;;;;;7.65;5.07;;;9.70;99.90;;;;;;5076101;28;20573;-79
2021/05/16 01:21:59;;;;;;;7.03;5.30;;;9.80;99.90;;;;;;5074754;28;20039;-78
2021/05/16 01:24:26;;;;;;;5.45;4.50;;;9.80;99.90;;;;;;5073850;28;20016;-79
2021/05/16 01:26:53;;;;;;;7.07;4.80;;;9.80;99.90;;;;;;5074647;28;20036;-78
2021/05/16 01:29:19;;;;;;;6.60;5.43;;;9.70;99.90;;;;;;5075795;28;20017;-78
2021/05/16 01:31:45;;;;;;;6.13;4.45;;;9.80;99.90;;;;;;5075475;28;20071;-79
2021/05/16 01:34:11;;;;;;;7.80;5.38;;;9.70;99.90;;;;;;5062509;28;20182;-80
2021/05/16 01:36:38;;;;;;;6.40;4.97;;;9.70;99.90;;;;;;5055777;28;20029;-80
2021/05/16 01:39:07;;;;;;;7.72;5.38;;;9.70;99.90;;;;;;5054486;28;20025;-79
2021/05/16 01:41:33;;;;;;;7.20;5.32;;;9.60;99.90;;;;;;5059023;28;20029;-80
2021/05/16 01:43:59;;;;;;;6.90;5.40;;;9.60;99.90;;;;;;5074399;28;20474;-79
2021/05/16 01:46:25;;;;;;;7.55;5.13;;;9.60;99.90;;;;;;5075623;28;20094;-79
2021/05/16 01:48:51;;;;;;;5.55;4.38;;;9.60;99.90;;;;;;5067550;28;20024;-79
2021/05/16 01:51:19;;;;;;;7.50;4.80;;;9.60;99.90;;;;;;5054272;28;20020;-79
2021/05/16 01:53:48;;;;;;;6.78;5.07;;;9.60;99.90;;;;;;5054411;28;20120;-79
2021/05/16 01:56:24;;;;;;;5.85;5.20;;;9.50;99.90;;;;;;5053914;28;20420;-79
2021/05/16 01:58:51;;;;;;;6.38;5.15;;;9.50;99.90;;;;;;5054168;28;20017;-79
2021/05/16 02:01:17;;;;;;;7.32;4.82;;;9.60;99.90;;;;;;5055312;28;20021;-79
2021/05/16 02:03:44;;;;;;;5.80;4.55;;;9.60;99.90;;;;;;5055344;28;20031;-79
2021/05/16 02:06:11;;;;;;;8.32;5.03;;;9.50;99.90;;;;;;5054039;28;20398;-79
2021/05/16 02:08:39;;;;;;;6.90;4.80;;;9.50;99.90;;;;;;5078380;28;20020;-78
2021/05/16 02:11:05;;;;;;;8.15;5.22;;;9.50;99.90;;;;;;5095395;28;20035;-79
2021/05/16 02:13:32;;;;;;;5.35;4.45;;;9.50;99.90;;;;;;5095236;28;20036;-79
2021/05/16 02:15:58;;;;;;;8.05;5.00;;;9.50;99.90;;;;;;5094018;28;20065;-79
2021/05/16 02:18:23;;;;;;;7.28;5.50;;;9.50;99.90;;;;;;5091501;28;20029;-79
2021/05/16 02:20:49;;;;;;;6.13;4.45;;;9.40;99.90;;;;;;5073784;28;20031;-79
2021/05/16 02:23:15;;;;;;;8.27;5.47;;;9.30;99.90;;;;;;5073640;28;20021;-79
2021/05/16 02:25:41;;;;;;;6.40;5.43;;;9.30;99.90;;;;;;5073269;28;20028;-79
2021/05/16 02:28:06;;;;;;;7.53;5.45;;;9.30;99.90;;;;;;5088212;28;20032;-79
2021/05/16 02:30:33;;;;;;;6.75;4.93;;;9.30;99.90;;;;;;5095012;28;20027;-79
2021/05/16 02:32:59;;;;;;;8.07;4.85;;;9.30;99.90;;;;;;5078052;28;20133;-80
2021/05/16 02:35:25;;;;;;;8.85;5.53;;;9.30;99.90;;;;;;5054666;28;20498;-79
2021/05/16 02:37:51;;;;;;;7.30;5.60;;;9.30;99.90;;;;;;5053291;28;20028;-79
2021/05/16 02:40:17;;;;;;;8.48;5.72;;;9.30;99.90;;;;;;5053329;28;20025;-79
2021/05/16 02:42:42;;;;;;;6.53;5.35;;;9.30;99.90;;;;;;5053260;28;20449;-79
2021/05/16 02:45:09;;;;;;;8.25;5.88;;;9.30;99.90;;;;;;5053249;28;20114;-79
2021/05/16 02:47:35;;;;;;;9.18;6.15;;;9.30;99.90;;;;;;5052098;28;20055;-79
2021/05/16 02:50:00;;;;;;;6.90;4.95;;;9.40;99.90;;;;;;5068603;28;20012;-78
2021/05/16 02:52:26;;;;;;;7.10;5.35;;;9.30;99.90;;;;;;5072973;28;20028;-78
2021/05/16 02:54:52;;;;;;;7.22;5.15;;;9.30;99.90;;;;;;5091280;28;20035;-79
2021/05/16 02:57:18;;;;;;;6.53;5.55;;;9.30;99.90;;;;;;5094343;28;20085;-79
2021/05/16 02:59:43;;;;;;;5.82;4.60;;;9.30;99.90;;;;;;5093151;28;20035;-80
2021/05/16 03:02:09;;;;;;;6.68;5.22;;;9.30;99.90;;;;;;5094338;28;20032;-79
2021/05/16 03:04:35;;;;;;;5.72;4.32;;;9.30;99.90;;;;;;5066900;28;20033;-78
2021/05/16 03:07:00;;;;;;;5.47;3.80;;;9.30;99.90;;;;;;5052419;28;20078;-79
2021/05/16 03:09:29;;;;;;;5.25;4.28;;;9.30;99.90;;;;;;5052782;28;20459;-79
2021/05/16 03:11:54;;;;;;;5.90;4.45;;;9.30;99.90;;;;;;5052287;28;20083;-80
2021/05/16 03:14:20;;;;;;;5.35;4.72;;;9.30;99.90;;;;;;5052516;28;20037;-80
2021/05/16 03:16:45;;;;;;;4.88;3.60;;;9.30;99.90;;;;;;5053705;28;20040;-79
2021/05/16 03:19:11;;;;;;;8.93;4.88;;;9.30;99.90;;;;;;5052702;28;20033;-79
2021/05/16 03:21:37;;;;;;;5.20;4.00;;;9.30;99.90;;;;;;5052486;28;20031;-79
2021/05/16 03:24:03;;;;;;;4.75;4.25;;;9.40;99.90;;;;;;5052420;28;20013;-80
2021/05/16 03:26:29;;;;;;;5.43;4.68;;;9.40;99.90;;;;;;5052332;28;20113;-80
2021/05/16 03:28:55;;;;;;;6.25;5.65;;;9.50;99.90;;;;;;5053652;28;20063;-79
2021/05/16 03:31:21;;;;;;;7.70;5.90;;;9.50;99.90;;;;;;5055189;28;20021;-80
2021/05/16 03:33:46;;;;;;;8.43;5.30;;;9.60;99.90;;;;;;5069250;28;20124;-80
2021/05/16 03:36:12;;;;;;;6.40;4.88;;;9.70;99.90;;;;;;5072218;28;20025;-80
2021/05/16 03:38:38;;;;;;;6.65;5.07;;;9.70;99.90;;;;;;5072175;28;20034;-80
2021/05/16 03:41:04;;;;;;;6.15;3.78;;;9.70;99.90;;;;;;5072144;28;20509;-81
2021/05/16 03:43:31;;;;;;;7.35;4.22;;;9.70;99.90;;;;;;5072060;28;20029;-81
2021/05/16 03:45:56;;;;;;;8.00;4.65;;;9.80;99.90;;;;;;5072109;28;20081;-80
2021/05/16 03:48:22;;;;;;;7.93;5.57;;;9.80;99.90;;;;;;5071203;28;20025;-80
2021/05/16 03:50:48;;;;;;;6.25;4.38;;;9.80;99.90;;;;;;5072940;28;20491;-80
2021/05/16 03:53:13;;;;;;;5.78;4.75;;;9.90;99.90;;;;;;5073097;28;20036;-79
2021/05/16 03:55:39;;;;;;;7.03;4.68;;;10.00;99.90;;;;;;5071970;28;20021;-79
2021/05/16 03:58:05;;;;;;;6.10;5.30;;;10.10;99.90;;;;;;5073106;28;20470;-79
2021/05/16 04:00:30;;;;;;;6.30;5.15;;;10.20;99.90;;;;;;5071877;28;20481;-80
2021/05/16 04:02:56;;;;;;;6.35;5.32;;;10.30;99.90;;;;;;5073123;28;20099;-79
2021/05/16 04:05:22;;;;;;;7.82;5.40;;;10.40;99.90;;;;;;5071814;28;20489;-79
2021/05/16 04:07:49;;;;;;;10.02;6.00;;;10.40;99.90;;;;;;5071752;28;20012;-80
2021/05/16 04:10:15;;;;;;;9.18;6.18;;;10.50;99.90;;;;;;5072970;28;20024;-79
2021/05/16 04:12:40;;;;;;;10.30;6.72;;;10.50;99.90;;;;;;5071534;28;20159;-79
2021/05/16 04:15:07;;;;;;;11.15;6.57;;;10.50;99.90;;;;;;5071637;28;20537;-78
2021/05/16 04:17:33;;;;;;;8.68;6.90;;;10.50;99.90;;;;;;5058324;28;20079;-78
2021/05/16 04:19:59;;;;;;;9.13;6.28;;;10.50;99.90;;;;;;5052382;28;20024;-79
2021/05/16 04:22:24;;;;;;;9.18;6.47;;;10.50;99.90;;;;;;5055785;28;20086;-79
2021/05/16 04:24:52;;;;;;;8.32;6.40;;;10.50;99.90;;;;;;5065350;28;20521;-79
2021/05/16 04:27:18;;;;;;;8.48;6.50;;;10.50;99.90;;;;;;5071438;28;20043;-78
2021/05/16 04:29:44;;;;;;;7.85;6.25;;;10.50;99.90;;;;;;5071471;28;20037;-78
2021/05/16 04:32:10;;;;;;;7.47;6.28;;;10.50;99.90;;;;;;5071246;28;20029;-78
2021/05/16 04:34:36;;;;;;;8.15;6.65;;;10.50;99.90;;;;;;5071345;28;20068;-78
2021/05/16 04:37:01;;;;;;;10.02;7.25;;;10.60;99.90;;;;;;5071338;28;20023;-78
2021/05/16 04:39:27;;;;;;;8.90;7.00;;;10.70;99.90;;;;;;5071395;28;20032;-79
2021/05/16 04:41:53;;;;;;;11.43;6.35;;;10.70;99.90;;;;;;5071438;28;20020;-79
2021/05/16 04:44:19;;;;;;;11.63;7.60;;;10.70;99.90;;;;;;5071295;28;20066;-80
2021/05/16 04:46:44;;;;;;;9.45;6.70;;;10.80;99.90;;;;;;5064099;28;20029;-79
2021/05/16 04:49:10;;;;;;;10.60;6.50;;;10.80;99.90;;;;;;5052587;28;20028;-79
2021/05/16 04:51:36;;;;;;;12.05;6.72;;;10.90;99.90;;;;;;5056472;28;20017;-80
2021/05/16 04:54:02;;;;;;;10.85;5.32;;;11.00;99.90;;;;;;5061122;28;20389;-80
2021/05/16 04:56:27;;;;;;;8.07;4.70;;;11.10;99.90;;;;;;5071182;28;20101;-79
2021/05/16 04:58:53;;;;;;;7.97;4.85;;;11.20;99.90;;;;;;5069962;28;20017;-80
2021/05/16 05:01:21;;;;;;;6.95;4.57;;;11.30;99.90;;;;;;5061830;28;20021;-81
2021/05/16 05:03:47;;;;;;;6.85;4.60;;;11.40;99.90;;;;;;5060092;28;20028;-80
2021/05/16 05:06:12;;;;;;;7.53;4.65;;;11.60;99.90;;;;;;5051238;28;20025;-79
2021/05/16 05:08:38;;;;;;;10.40;5.68;;;11.70;99.90;;;;;;5050645;28;20025;-78
2021/05/16 05:11:04;;;;;;;6.55;5.10;;;11.70;99.90;;;;;;5052344;28;20108;-78
2021/05/16 05:13:29;;;;;;;7.35;4.78;;;11.80;99.90;;;;;;5050836;28;20039;-79
2021/05/16 05:15:55;;;;;;;7.65;4.95;;;11.90;99.90;;;;;;5054880;28;20025;-81
2021/05/16 05:18:21;;;;;;;7.93;5.15;;;12.00;99.90;;;;;;5058772;28;20033;-78
2021/05/16 05:20:47;;;;;;;12.05;5.97;;;12.10;99.90;;;;;;5052255;28;20025;-80
2021/05/16 05:23:13;;;;;;;7.13;5.35;;;12.20;99.90;;;;;;5052375;28;20048;-79
2021/05/16 05:25:39;;;;;;;5.93;5.32;;;12.20;99.90;;;;;;5050981;28;20445;-79
2021/05/16 05:28:05;;;;;;;8.65;5.35;;;12.20;99.90;;;;;;5050953;28;20386;-79
2021/05/16 05:30:30;;;;;;;7.03;5.55;;;12.30;99.90;;;;;;5060019;28;20029;-78
2021/05/16 05:32:56;;;;;;;8.02;5.78;;;12.30;99.90;;;;;;5074342;28;20036;-79
2021/05/16 05:35:22;;;;;;;10.02;7.60;;;12.40;99.90;;;;;;5074632;28;20075;-79
2021/05/16 05:37:48;;;;;;;9.15;6.80;;;12.40;99.90;;;;;;5074454;28;20029;-80
2021/05/16 05:40:13;;;;;;;7.25;5.57;;;12.40;99.90;;;;;;5074482;28;20385;-80
2021/05/16 05:42:40;;;;;;;10.85;6.65;;;12.40;99.90;;;;;;5074392;28;20367;-79
2021/05/16 05:45:07;;;;;;;7.45;6.65;;;12.50;99.90;;;;;;5075756;28;20066;-79
2021/05/16 05:47:33;;;;;;;6.22;5.32;;;12.60;99.90;;;;;;5061320;28;20095;-78
2021/05/16 05:49:59;;;;;;;9.15;5.95;;;12.60;99.90;;;;;;5052235;28;20025;-79
2021/05/16 05:52:24;;;;;;;8.50;6.45;;;12.70;99.90;;;;;;5051863;28;20033;-78
2021/05/16 05:54:50;;;;;;;8.32;4.93;;;12.80;99.90;;;;;;5071386;28;20009;-76
2021/05/16 05:57:16;;;;;;;14.45;6.65;;;12.90;99.90;;;;;;5071792;28;20052;-77
2021/05/16 05:59:42;;;;;;;11.20;6.70;;;13.00;99.90;;;;;;5073262;28;20021;-76
2021/05/16 06:02:08;;;;;;;7.13;4.72;;;13.10;99.90;;;;;;5073956;28;20029;-76
2021/05/16 06:04:34;;;;;;;7.35;4.72;;;13.00;99.90;;;;;;5072500;28;20052;-76
2021/05/16 06:07:00;;;;;;;6.63;4.68;;;13.10;99.90;;;;;;5052796;28;20064;-76
2021/05/16 06:09:26;;;;;;;5.32;3.72;;;13.20;99.90;;;;;;5055028;28;20053;-76
2021/05/16 06:11:51;;;;;;;7.10;5.10;;;13.30;99.90;;;;;;5055051;28;20047;-75
2021/05/16 06:14:17;;;;;;;11.02;6.40;;;13.30;99.90;;;;;;5073179;28;20542;-77
2021/05/16 06:16:43;;;;;;;15.57;7.43;;;13.40;99.90;;;;;;5073711;28;20032;-77
2021/05/16 06:19:08;;;;;;;12.23;7.38;;;13.50;99.90;;;;;;5074948;28;20040;-75
2021/05/16 06:21:34;;;;;;;10.65;5.47;;;13.60;99.90;;;;;;5057509;28;20103;-77
2021/05/16 06:24:07;;;;;;;6.35;3.80;;;13.60;99.90;;;;;;5066704;28;20051;-76
2021/05/16 06:26:36;;;;;;;5.90;3.63;;;13.60;99.90;;;;;;5061839;28;20036;-76
2021/05/16 06:29:03;;;;;;;5.15;3.28;;;13.60;99.90;;;;;;5063865;28;20013;-77
2021/05/16 06:31:29;;;;;;;4.10;3.28;;;13.60;99.90;;;;;;5063707;28;20032;-76
2021/05/16 06:33:55;;;;;;;4.50;3.60;;;13.50;99.90;;;;;;5063557;28;20032;-76
2021/05/16 06:36:21;;;;;;;5.55;3.30;;;13.60;99.90;;;;;;5061815;28;20111;-77
2021/05/16 06:38:47;;;;;;;3.40;3.05;;;13.70;99.90;;;;;;5062358;28;20020;-76
2021/05/16 06:41:13;;;;;;;4.13;2.90;;;13.70;99.90;;;;;;5064463;28;20032;-77
2021/05/16 06:43:39;;;;;;;2.60;2.40;;;13.80;99.90;;;;;;5055793;28;20017;-76
2021/05/16 06:46:04;;;;;;;2.80;2.60;;;13.70;99.90;;;;;;5053109;28;20097;-77
2021/05/16 06:48:30;;;;;;;3.22;2.92;;;13.70;99.90;;;;;;5054030;28;20032;-76
2021/05/16 06:50:56;;;;;;;2.78;2.58;;;13.70;99.90;;;;;;5054102;28;20021;-77
2021/05/16 06:53:22;;;;;;;3.90;2.80;;;13.60;99.90;;;;;;5069177;28;20037;-76
2021/05/16 06:55:48;;;;;;;3.08;2.58;;;13.60;99.90;;;;;;5074899;28;20402;-77
2021/05/16 06:58:14;;;;;;;2.60;2.40;;;13.50;99.90;;;;;;5057197;28;20249;-76
2021/05/16 07:00:40;;;;;;;3.70;3.40;;;13.40;99.90;;;;;;5052842;28;20112;-77
2021/05/16 07:03:06;;;;;;;3.28;2.97;;;13.40;99.90;;;;;;5052749;28;20120;-76
2021/05/16 07:05:32;;;;;;;3.95;3.20;;;13.40;99.90;;;;;;5052236;28;20120;-77
2021/05/16 07:07:58;;;;;;;3.80;2.80;;;13.40;99.90;;;;;;5052736;28;20028;-76
2021/05/16 07:10:24;;;;;;;3.60;3.00;;;13.30;99.90;;;;;;5052641;28;20021;-77
2021/05/16 07:12:50;;;;;;;5.10;2.50;;;13.40;99.90;;;;;;5056473;28;20051;-74
2021/05/16 07:15:16;;;;;;;7.18;4.88;;;13.30;99.90;;;;;;5073730;28;20496;-77
2021/05/16 07:17:43;;;;;;;6.22;4.18;;;13.30;99.90;;;;;;5072377;28;20035;-74
2021/05/16 07:20:10;;;;;;;4.85;4.10;;;13.20;99.90;;;;;;5073327;28;20466;-73
2021/05/16 07:22:36;;;;;;;7.18;4.15;;;13.10;99.90;;;;;;5073372;28;20052;-73
2021/05/16 07:25:03;;;;;;;2.38;2.17;;;13.00;99.90;;;;;;5073386;28;20056;-72
2021/05/16 07:27:29;;;;;;;2.15;1.95;;;12.90;99.90;;;;;;5073451;28;20104;-73
2021/05/16 07:29:55;;;;;;;1.95;1.80;;;12.90;99.90;;;;;;5067434;28;20124;-73
2021/05/16 07:32:20;;;;;;;2.22;1.70;;;13.00;99.90;;;;;;5071379;28;20020;-73
2021/05/16 07:34:47;;;;;;;2.10;1.80;;;13.10;99.90;;;;;;5071296;28;20012;-74
2021/05/16 07:37:13;;;;;;;2.40;1.95;;;13.20;99.90;;;;;;5072446;28;20028;-73
2021/05/16 07:39:39;;;;;;;2.70;2.50;;;13.30;99.90;;;;;;5072867;28;20478;-73
2021/05/16 07:42:05;;;;;;;2.10;2.00;;;13.40;99.90;;;;;;5072854;28;20447;-74
2021/05/16 07:44:31;;;;;;;2.88;2.67;;;13.60;99.90;;;;;;5059639;28;20040;-74
2021/05/16 07:46:57;;;;;;;2.70;2.47;;;13.80;99.90;;;;;;5053191;28;20470;-74
2021/05/16 07:49:23;;;;;;;5.88;2.03;;;14.00;99.90;;;;;;5052927;28;20021;-73
2021/05/16 07:51:48;;;;;;;2.65;2.10;;;14.10;99.90;;;;;;5052811;28;20029;-74
2021/05/16 07:54:14;;;;;;;2.53;2.33;;;14.10;99.90;;;;;;5053080;28;20501;-74
2021/05/16 07:56:40;;;;;;;2.70;2.30;;;14.30;99.90;;;;;;5051695;28;20047;-76
2021/05/16 07:59:05;;;;;;;3.17;2.13;;;14.40;99.90;;;;;;5051729;28;20017;-74
2021/05/16 08:01:31;;;;;;;3.78;2.25;;;14.60;99.90;;;;;;5050127;28;20025;-75
2021/05/16 08:03:57;;;;;;;3.65;3.10;;;14.70;99.90;;;;;;5060389;28;20024;-74
2021/05/16 08:06:23;;;;;;;5.68;3.38;;;14.90;99.90;;;;;;5071561;28;20418;-74
2021/05/16 08:08:49;;;;;;;7.50;4.40;;;15.00;99.90;;;;;;5069697;28;20024;-74
2021/05/16 08:11:15;;;;;;;4.22;2.90;;;15.00;99.90;;;;;;5061612;28;20371;-75
2021/05/16 08:13:40;;;;;;;3.90;3.50;;;15.00;99.90;;;;;;5052590;28;20033;-74
2021/05/16 08:16:06;;;;;;;3.50;3.20;;;15.00;99.90;;;;;;5052693;28;20459;-74
2021/05/16 08:18:32;;;;;;;5.43;3.38;;;15.00;99.90;;;;;;5051096;28;20398;-74
2021/05/16 08:20:58;;;;;;;5.15;3.33;;;14.90;99.90;;;;;;5052206;28;20021;-73
2021/05/16 08:23:24;;;;;;;4.65;4.05;;;14.80;99.90;;;;;;5052708;28;20029;-73
2021/05/16 08:25:50;;;;;;;5.28;3.10;;;14.70;99.90;;;;;;5052671;28;20406;-73
2021/05/16 08:28:16;;;;;;;4.20;2.85;;;14.80;99.90;;;;;;5052651;28;20021;-75
2021/05/16 08:30:42;;;;;;;5.40;2.97;;;14.80;99.90;;;;;;5052653;28;20017;-76
2021/05/16 08:33:08;;;;;;;3.42;2.72;;;14.80;99.90;;;;;;5051524;28;20037;-72
2021/05/16 08:35:35;;;;;;;4.93;2.80;;;14.70;99.90;;;;;;5051434;28;20152;-74
2021/05/16 08:38:01;;;;;;;2.35;2.03;;;14.70;99.90;;;;;;5052409;28;20025;-73
2021/05/16 08:40:26;;;;;;;3.33;2.60;;;14.50;99.90;;;;;;5052442;28;20074;-73
2021/05/16 08:42:52;;;;;;;3.50;2.20;;;14.50;99.90;;;;;;5070833;28;20021;-73
2021/05/16 08:45:18;;;;;;;2.80;1.85;;;14.40;99.90;;;;;;5072294;28;20056;-74
2021/05/16 08:47:45;;;;;;;3.80;2.30;;;14.30;99.90;;;;;;5071948;28;20027;-74
2021/05/16 08:50:16;;;;;;;2.35;2.08;;;14.20;99.90;;;;;;5070455;28;20052;-74
2021/05/16 08:52:42;;;;;;;3.42;2.00;;;14.10;99.90;;;;;;5070877;28;20017;-73
2021/05/16 08:55:10;;;;;;;3.30;2.63;;;14.20;99.90;;;;;;5071132;28;20055;-75
2021/05/16 08:57:36;;;;;;;6.07;3.28;;;14.10;99.90;;;;;;5070839;28;20488;-74
2021/05/16 09:00:04;;;;;;;168.75;77.60;;;14.00;99.90;;;;;;5070780;28;20052;-74
2021/05/16 09:02:30;;;;;;;27.73;13.10;;;13.90;99.90;;;;;;5072214;28;20418;-73
2021/05/16 09:04:55;;;;;;;84.72;47.42;;;13.90;99.90;;;;;;5073252;28;20206;-73
2021/05/16 09:07:31;;;;;;;25.10;14.30;;;13.80;99.90;;;;;;5076278;28;20032;-73
2021/05/16 09:09:56;;;;;;;39.20;19.60;;;13.70;99.90;;;;;;5076194;28;20029;-74
2021/05/16 09:12:23;;;;;;;8.13;5.15;;;13.80;99.90;;;;;;5076044;28;20371;-74
2021/05/16 09:15:00;;;;;;;47.65;17.98;;;13.60;99.90;;;;;;5074858;28;20036;-74
2021/05/16 09:17:30;;;;;;;7.05;3.28;;;13.60;99.90;;;;;;5074637;28;20062;-74
2021/05/16 09:20:02;;;;;;;4.03;2.78;;;13.60;99.90;;;;;;5075369;28;20063;-75
2021/05/16 09:22:42;;;;;;;12.23;8.50;;;13.60;99.90;;;;;;5074682;28;20024;-74
2021/05/16 09:25:18;;;;;;;8.60;5.85;;;13.50;99.90;;;;;;5074244;28;20497;-74
2021/05/16 09:27:49;;;;;;;67.43;36.20;;;13.40;99.90;;;;;;5074450;28;20598;-74
2021/05/16 09:30:18;;;;;;;40.92;13.63;;;13.40;99.90;;;;;;5056328;28;20410;-74
2021/05/16 09:32:52;;;;;;;15.63;5.43;;;13.50;99.90;;;;;;5071897;28;20025;-74
2021/05/16 09:35:18;;;;;;;6.85;3.53;;;13.70;99.90;;;;;;5073954;28;20037;-74
2021/05/16 09:38:03;;;;;;;7.25;2.60;;;13.80;99.90;;;;;;5073280;28;20111;-74
2021/05/16 09:40:32;;;;;;;5.90;4.63;;;13.90;99.90;;;;;;5060193;28;20029;-74
2021/05/16 09:43:07;;;;;;;12.50;8.88;;;14.20;99.90;;;;;;5061673;28;20027;-74
2021/05/16 09:45:48;;;;;;;4.55;3.80;;;14.40;99.90;;;;;;5065503;28;20071;-74
2021/05/16 09:48:18;;;;;;;5.82;2.60;;;14.70;99.90;;;;;;5060337;28;20024;-75
2021/05/16 09:50:44;;;;;;;3.63;2.20;;;14.70;99.90;;;;;;5060285;28;20086;-75
2021/05/16 09:53:13;;;;;;;3.53;2.33;;;14.60;99.90;;;;;;5061173;28;20391;-75
2021/05/16 09:55:39;;;;;;;3.70;2.92;;;14.60;99.90;;;;;;5062376;28;20016;-74
2021/05/16 09:58:05;;;;;;;2.13;2.03;;;14.70;99.90;;;;;;5060029;28;20094;-73
2021/05/16 10:00:30;;;;;;;2.50;2.35;;;14.70;99.90;;;;;;5056966;28;20024;-74
2021/05/16 10:02:56;;;;;;;7.90;5.97;;;14.70;98.60;;;;;;5061683;28;20021;-74
2021/05/16 10:05:22;;;;;;;4.07;2.38;;;14.80;99.90;;;;;;5061974;28;20078;-74
2021/05/16 10:07:49;;;;;;;3.85;2.00;;;14.70;96.90;;;;;;5064042;28;20009;-75
2021/05/16 10:10:15;;;;;;;1.85;1.48;;;14.90;99.90;;;;;;5063297;28;20025;-74
2021/05/16 10:12:42;;;;;;;2.90;1.65;;;14.90;99.20;;;;;;5062147;28;20040;-74
2021/05/16 10:15:25;;;;;;;1.40;1.10;;;15.00;99.90;;;;;;5060814;28;20435;-74
2021/05/16 10:17:52;;;;;;;;;;;15.00;97.60;;;;;;5076606;28;20025;-74
2021/05/16 10:20:21;;;;;;;4.25;3.85;;;15.00;95.00;;;;;;5061990;28;19919;-74
2021/05/16 10:23:04;;;;;;;3.40;2.22;;;15.00;96.30;;;;;;5058670;28;20442;-74
2021/05/16 10:26:18;;;;;;;2.72;1.95;;;15.00;92.60;;;;;;5060769;28;20020;-74
2021/05/16 10:29:00;;;;;;;2.42;1.10;;;15.10;92.90;;;;;;5059609;28;20521;-74
2021/05/16 10:31:54;;;;;;;1.20;1.17;;;15.30;94.70;;;;;;5062913;28;20405;-74
2021/05/16 10:34:28;;;;;;;1.10;1.05;;;15.30;99.90;;;;;;5058753;28;20035;-74
2021/05/16 10:36:59;;;;;;;2.10;1.70;;;15.40;90.40;;;;;;5061093;28;20032;-75
2021/05/16 10:39:40;;;;;;;3.30;2.00;;;15.60;95.60;;;;;;5058305;28;20040;-75
2021/05/16 10:42:12;;;;;;;3.38;2.08;;;15.80;98.40;;;;;;5064973;28;20138;-75
2021/05/16 10:44:40;;;;;;;1.52;1.42;;;15.90;91.10;;;;;;5066741;28;20055;-78
2021/05/16 10:47:07;;;;;;;1.10;1.00;;;15.90;91.40;;;;;;5059042;28;20032;-75
2021/05/16 10:49:35;;;;;;;3.95;1.08;;;15.80;82.20;;;;;;5054777;28;20028;-78
2021/05/16 10:52:26;;;;;;;0.82;0.82;;;15.90;86.10;;;;;;5056625;28;20481;-76
2021/05/16 10:54:52;;;;;;;1.50;1.40;;;16.00;85.00;;;;;;5056706;28;20033;-75
2021/05/16 10:57:23;;;;;;;2.75;1.20;;;16.00;82.00;;;;;;5056736;28;20025;-75
2021/05/16 10:59:49;;;;;;;0.88;0.85;;;16.00;85.20;;;;;;5056991;28;20070;-75
2021/05/16 11:02:52;;;;;;;1.40;1.30;;;16.00;85.40;;;;;;5052834;28;20021;-75
2021/05/16 11:05:59;;;;;;;0.98;0.95;;;15.90;81.40;;;;;;5056958;28;20383;-75
2021/05/16 11:08:26;;;;;;;1.10;1.00;;;15.70;84.10;;;;;;5053958;28;20191;-76
2021/05/16 11:10:55;;;;;;;1.25;1.13;;;15.40;82.20;;;;;;5049565;28;20036;-76
2021/05/16 11:13:28;;;;;;;1.73;1.63;;;15.40;84.90;;;;;;5050476;28;20562;-76
2021/05/16 11:16:07;;;;;;;0.90;0.90;;;15.20;83.30;;;;;;5053298;28;20108;-75
2021/05/16 11:18:34;;;;;;;2.15;1.13;;;15.20;88.80;;;;;;5066237;28;20052;-76
2021/05/16 11:21:06;;;;;;;1.65;1.08;;;15.00;86.80;;;;;;5059866;28;20024;-76
2021/05/16 11:23:38;;;;;;;1.15;1.00;;;15.00;91.50;;;;;;5057052;28;20503;-76
2021/05/16 11:26:04;;;;;;;4.10;1.30;;;14.90;90.00;;;;;;5057751;28;20093;-76
2021/05/16 11:28:44;;;;;;;3.67;1.52;;;14.80;89.70;;;;;;5062542;28;20043;-76
2021/05/16 11:31:17;;;;;;;1.55;1.45;;;14.70;94.10;;;;;;5063117;28;20058;-76
2021/05/16 11:33:43;;;;;;;1.20;1.10;;;14.50;97.40;;;;;;5059964;28;20045;-76
2021/05/16 11:36:12;;;;;;;1.40;1.20;;;14.20;94.80;;;;;;5064041;28;20107;-76
2021/05/16 11:38:40;;;;;;;1.35;1.10;;;14.20;99.90;;;;;;5054073;28;20115;-76
2021/05/16 11:41:10;;;;;;;2.17;1.17;;;14.20;99.90;;;;;;5053151;28;20101;-76
2021/05/16 11:43:43;;;;;;;1.58;1.30;;;14.30;99.90;;;;;;5053068;28;20024;-76
2021/05/16 11:46:11;;;;;;;2.20;1.90;;;14.30;99.90;;;;;;5062952;28;20141;-76
2021/05/16 11:48:39;;;;;;;5.70;2.10;;;14.40;99.90;;;;;;5055600;28;20029;-75
2021/05/16 11:51:14;;;;;;;3.35;2.13;;;14.60;99.90;;;;;;5059644;28;20056;-75
2021/05/16 11:53:42;;;;;;;2.53;1.35;;;14.70;99.90;;;;;;5062253;28;20043;-76
2021/05/16 11:56:16;;;;;;;1.95;1.60;;;14.70;99.90;;;;;;5060479;28;20024;-76
2021/05/16 11:59:01;;;;;;;1.23;1.08;;;14.90;99.90;;;;;;5067154;28;20082;-76
2021/05/16 12:01:34;;;;;;;2.28;2.05;;;14.70;92.10;;;;;;5068604;28;20056;-76
2021/05/16 12:04:01;;;;;;;2.80;1.98;;;14.80;97.90;;;;;;5070326;28;20018;-76
2021/05/16 12:06:31;;;;;;;4.55;2.10;;;14.70;96.20;;;;;;5070668;28;20028;-76
2021/05/16 12:09:09;;;;;;;2.10;1.90;;;14.70;97.40;;;;;;5071796;28;20474;-75
2021/05/16 12:11:35;;;;;;;3.30;2.28;;;14.90;99.80;;;;;;5054005;28;20051;-75
2021/05/16 12:14:12;;;;;;;2.80;1.90;;;15.00;99.90;;;;;;5060273;28;20028;-75
2021/05/16 12:16:39;;;;;;;1.30;1.20;;;15.10;97.10;;;;;;5065575;28;20037;-75
2021/05/16 12:19:07;;;;;;;3.00;1.90;;;15.10;88.30;;;;;;5061605;28;20047;-74
2021/05/16 12:21:37;;;;;;;2.88;2.30;;;15.10;88.50;;;;;;5065151;28;20446;-75
2021/05/16 12:24:04;;;;;;;44.38;19.20;;;15.20;92.40;;;;;;5071626;28;20117;-75
2021/05/16 12:26:35;;;;;;;103.85;52.25;;;15.20;91.70;;;;;;5071592;28;20482;-75
2021/05/16 12:29:01;;;;;;;124.45;61.85;;;15.40;92.80;;;;;;5070239;28;20081;-75
2021/05/16 12:31:31;;;;;;;94.80;45.88;;;15.40;90.10;;;;;;5071098;28;20029;-75
2021/05/16 12:34:05;;;;;;;142.10;70.25;;;15.50;92.70;;;;;;5069957;28;20402;-76
2021/05/16 12:36:49;;;;;;;32.47;15.35;;;15.70;92.80;;;;;;5070219;28;20027;-75
2021/05/16 12:39:43;;;;;;;35.67;13.55;;;15.70;90.00;;;;;;5066241;28;20032;-74
2021/05/16 12:42:36;;;;;;;23.58;12.27;;;15.70;85.30;;;;;;5070426;28;20027;-75
2021/05/16 12:45:24;;;;;;;51.90;24.83;;;15.60;80.80;;;;;;5071021;28;20028;-74
2021/05/16 12:47:58;;;;;;;15.20;6.90;;;15.40;80.00;;;;;;5068418;28;20025;-75
2021/05/16 12:50:42;;;;;;;30.58;8.50;;;15.30;81.40;;;;;;5071198;28;20070;-75
2021/05/16 12:53:30;;;;;;;40.85;22.25;;;15.20;85.90;;;;;;5070841;28;20093;-75